createdAt,value
2023-05-21T00:01:01.341Z,98051.31
2023-05-21T00:04:15.813Z,98049.70
2023-05-21T00:07:21.210Z,98055.48
2023-05-21T00:10:24.159Z,98053.42
2023-05-21T00:13:27.156Z,98054.27
2023-05-21T00:16:30.103Z,98048.91
2023-05-21T00:19:36.183Z,98048.35
2023-05-21T00:22:40.417Z,98047.02
2023-05-21T00:25:43.274Z,98050.18
2023-05-21T00:28:46.108Z,98047.08
2023-05-21T00:31:50.524Z,98043.23
2023-05-21T00:34:53.546Z,98035.27
2023-05-21T00:37:57.415Z,98039.79
2023-05-21T00:41:02.962Z,98043.46
2023-05-21T00:44:07.354Z,98046.77
2023-05-21T00:47:10.361Z,98043.33
2023-05-21T00:50:15.258Z,98047.95
2023-05-21T00:53:19.576Z,98048.01
2023-05-21T00:56:24.169Z,98048.16
2023-05-21T00:59:36.062Z,98043.11
2023-05-21T01:02:39.261Z,98037.46
2023-05-21T01:05:45.265Z,98035.70
2023-05-21T01:08:48.178Z,98034.93
2023-05-21T01:11:53.247Z,98033.77
2023-05-21T01:14:57.767Z,98028.08
2023-05-21T01:18:00.886Z,98021.11
2023-05-21T01:21:05.224Z,98014.20
2023-05-21T01:24:08.222Z,98005.89
2023-05-21T01:27:11.093Z,98010.59
2023-05-21T01:30:15.373Z,98016.98
2023-05-21T01:33:38.238Z,98016.48
2023-05-21T01:36:46.644Z,98018.56
2023-05-21T01:40:00.265Z,98016.07
2023-05-21T01:43:05.859Z,98010.12
2023-05-21T01:46:13.143Z,98009.54
2023-05-21T01:49:17.893Z,98005.04
2023-05-21T01:52:20.798Z,98001.27
2023-05-21T01:55:24.915Z,98004.86
2023-05-21T01:58:27.982Z,98002.27
2023-05-21T02:01:31.277Z,98000.13
2023-05-21T02:04:34.267Z,97998.48
2023-05-21T02:07:37.637Z,97999.33
2023-05-21T02:10:40.795Z,97993.84
2023-05-21T02:13:46.195Z,97991.35
2023-05-21T02:16:49.253Z,97993.33
2023-05-21T02:19:52.548Z,97989.67
2023-05-21T02:22:55.793Z,97984.52
2023-05-21T02:25:58.991Z,97983.06
2023-05-21T02:29:02.738Z,97986.29
2023-05-21T02:32:06.114Z,97990.91
2023-05-21T02:35:10.823Z,97993.15
2023-05-21T02:38:14.117Z,97994.08
2023-05-21T02:41:16.946Z,97988.73
2023-05-21T02:44:21.001Z,97986.84
2023-05-21T02:47:24.367Z,97991.59
2023-05-21T02:50:27.331Z,97988.04
2023-05-21T02:53:30.264Z,97990.09
2023-05-21T02:56:33.202Z,97988.63
2023-05-21T02:59:36.052Z,97988.83
2023-05-21T03:02:38.979Z,97986.85
2023-05-21T03:05:42.026Z,97985.39
2023-05-21T03:08:44.877Z,97987.75
2023-05-21T03:11:48.451Z,97989.48
2023-05-21T03:14:51.549Z,97983.38
2023-05-21T03:17:55.740Z,97980.89
2023-05-21T03:20:59.165Z,97985.20
2023-05-21T03:24:02.978Z,97986.23
2023-05-21T03:27:09.293Z,97983.54
2023-05-21T03:30:12.713Z,97981.83
2023-05-21T03:33:16.512Z,97981.95
2023-05-21T03:36:20.219Z,97978.25
2023-05-21T03:39:23.129Z,97976.91
2023-05-21T03:42:26.281Z,97978.56
2023-05-21T03:45:29.133Z,97978.48
2023-05-21T03:48:32.023Z,97981.26
2023-05-21T03:51:34.829Z,97975.83
2023-05-21T03:54:37.796Z,97970.40
2023-05-21T03:57:41.431Z,97971.48
2023-05-21T04:00:45.611Z,97974.61
2023-05-21T04:03:48.702Z,97971.95
2023-05-21T04:06:51.876Z,97973.69
2023-05-21T04:09:54.712Z,97973.02
2023-05-21T04:12:57.558Z,97974.30
2023-05-21T04:16:00.752Z,97980.98
2023-05-21T04:19:03.927Z,97972.77
2023-05-21T04:22:06.813Z,97973.34
2023-05-21T04:25:10.120Z,97970.95
2023-05-21T04:28:12.903Z,97968.09
2023-05-21T04:31:15.854Z,97969.29
2023-05-21T04:34:18.957Z,97972.39
2023-05-21T04:37:24.733Z,97974.61
2023-05-21T04:40:27.677Z,97975.77
2023-05-21T04:43:32.197Z,97971.73
2023-05-21T04:46:35.442Z,97970.95
2023-05-21T04:49:38.422Z,97967.52
2023-05-21T04:52:41.437Z,97965.85
2023-05-21T04:55:44.307Z,97968.96
2023-05-21T04:58:48.239Z,97968.02
2023-05-21T05:01:51.090Z,97968.83
2023-05-21T05:04:54.019Z,97969.02
2023-05-21T05:07:58.334Z,97973.09
2023-05-21T05:11:01.207Z,97971.05
2023-05-21T05:14:04.070Z,97968.02
2023-05-21T05:17:10.027Z,97972.63
2023-05-21T05:20:13.070Z,97973.42
2023-05-21T05:23:16.006Z,97971.23
2023-05-21T05:26:18.946Z,97972.61
2023-05-21T05:29:21.925Z,97970.65
2023-05-21T05:32:24.878Z,97968.59
2023-05-21T05:35:27.796Z,97965.59
2023-05-21T05:38:31.386Z,97967.84
2023-05-21T05:41:34.410Z,97965.42
2023-05-21T05:44:37.279Z,97965.79
2023-05-21T05:47:40.276Z,97963.75
2023-05-21T05:50:43.378Z,97966.84
2023-05-21T05:53:46.223Z,97966.22
2023-05-21T05:56:49.050Z,97965.92
2023-05-21T05:59:51.925Z,97964.38
2023-05-21T06:02:54.867Z,97957.48
2023-05-21T06:05:57.970Z,97962.88
2023-05-21T06:09:01.135Z,97957.34
2023-05-21T06:12:04.969Z,97956.41
2023-05-21T06:15:08.561Z,97951.85
2023-05-21T06:18:11.854Z,97950.41
2023-05-21T06:21:15.015Z,97949.96
2023-05-21T06:24:17.888Z,97943.66
2023-05-21T06:27:21.025Z,97944.18
2023-05-21T06:30:24.305Z,97941.52
2023-05-21T06:33:30.198Z,97939.44
2023-05-21T06:36:33.516Z,97938.36
2023-05-21T06:39:36.492Z,97936.52
2023-05-21T06:42:39.887Z,97941.15
2023-05-21T06:45:42.868Z,97943.91
2023-05-21T06:48:46.740Z,97943.86
2023-05-21T06:51:49.755Z,97944.09
2023-05-21T06:54:52.874Z,97943.42
2023-05-21T06:57:57.908Z,97941.63
2023-05-21T07:01:01.596Z,97941.06
2023-05-21T07:04:04.821Z,97941.27
2023-05-21T07:07:07.732Z,97939.88
2023-05-21T07:10:11.139Z,97941.22
2023-05-21T07:13:14.147Z,97945.15
2023-05-21T07:16:18.119Z,97938.30
2023-05-21T07:19:21.348Z,97941.54
2023-05-21T07:22:25.955Z,97935.27
2023-05-21T07:25:30.729Z,97936.55
2023-05-21T07:28:33.685Z,97934.93
2023-05-21T07:31:37.610Z,97931.02
2023-05-21T07:34:40.599Z,97930.60
2023-05-21T07:37:43.716Z,97928.92
2023-05-21T07:40:46.602Z,97932.22
2023-05-21T07:43:49.674Z,97932.83
2023-05-21T07:46:52.537Z,97934.41
2023-05-21T07:49:55.624Z,97933.84
2023-05-21T07:52:58.886Z,97931.51
2023-05-21T07:56:01.938Z,97928.79
2023-05-21T07:59:05.058Z,97924.77
2023-05-21T08:02:08.134Z,97926.36
2023-05-21T08:05:11.159Z,97926.47
2023-05-21T08:08:23.736Z,97924.61
2023-05-21T08:11:27.094Z,97925.09
2023-05-21T08:14:30.055Z,97920.45
2023-05-21T08:17:33.016Z,97921.79
2023-05-21T08:20:36.140Z,97921.23
2023-05-21T08:23:39.066Z,97916.44
2023-05-21T08:26:41.940Z,97916.45
2023-05-21T08:29:45.336Z,97914.83
2023-05-21T08:32:49.393Z,97916.54
2023-05-21T08:35:52.355Z,97915.16
2023-05-21T08:38:55.291Z,97910.23
2023-05-21T08:42:12.155Z,97913.77
2023-05-21T08:45:21.298Z,97910.75
2023-05-21T08:48:24.671Z,97912.38
2023-05-21T08:51:28.472Z,97912.20
2023-05-21T08:54:31.541Z,97904.65
2023-05-21T08:57:34.964Z,97907.42
2023-05-21T09:00:37.884Z,97902.70
2023-05-21T09:03:41.321Z,97900.98
2023-05-21T09:06:45.079Z,97898.16
2023-05-21T09:09:55.460Z,97893.73
2023-05-21T09:12:59.526Z,97895.43
2023-05-21T09:16:02.386Z,97887.95
2023-05-21T09:19:05.494Z,97889.02
2023-05-21T09:22:08.553Z,97889.04
2023-05-21T09:25:13.410Z,97886.64
2023-05-21T09:28:19.295Z,97880.02
2023-05-21T09:31:24.213Z,97879.91
2023-05-21T09:34:28.189Z,97875.95
2023-05-21T09:37:31.718Z,97878.77
2023-05-21T09:40:35.617Z,97877.10
2023-05-21T09:43:38.945Z,97869.52
2023-05-21T09:46:42.957Z,97872.05
2023-05-21T09:49:45.922Z,97871.98
2023-05-21T09:52:55.661Z,97870.49
2023-05-21T09:55:59.926Z,97874.49
2023-05-21T09:59:06.927Z,97869.48
2023-05-21T10:02:23.475Z,97863.31
2023-05-21T10:05:30.163Z,97860.67
2023-05-21T10:08:36.949Z,97857.50
2023-05-21T10:11:41.098Z,97852.72
2023-05-21T10:14:51.180Z,97853.16
2023-05-21T10:17:56.507Z,97848.16
2023-05-21T10:21:01.161Z,97835.45
2023-05-21T10:24:05.160Z,97835.29
2023-05-21T10:27:08.177Z,97838.52
2023-05-21T10:30:11.863Z,97825.48
2023-05-21T10:33:17.183Z,97824.80
2023-05-21T10:36:20.809Z,97816.77
2023-05-21T10:39:25.657Z,97819.70
2023-05-21T10:42:31.319Z,97820.88
2023-05-21T10:45:51.342Z,97818.35
2023-05-21T10:49:19.299Z,97812.69
2023-05-21T10:52:32.206Z,97815.29
2023-05-21T10:55:45.733Z,97818.01
2023-05-21T10:58:57.818Z,97820.86
2023-05-21T11:02:01.918Z,97813.80
2023-05-21T11:05:05.398Z,97812.48
2023-05-21T11:08:37.129Z,97818.45
2023-05-21T11:11:50.964Z,97815.27
2023-05-21T11:14:58.287Z,97805.48
2023-05-21T11:18:01.404Z,97806.02
2023-05-21T11:21:10.394Z,97803.84
2023-05-21T11:24:19.435Z,97802.37
2023-05-21T11:27:42.074Z,97802.66
2023-05-21T11:31:27.014Z,97801.92
2023-05-21T11:34:46.041Z,97799.40
2023-05-21T11:37:54.031Z,97807.49
2023-05-21T11:41:03.234Z,97800.56
2023-05-21T11:44:09.109Z,97801.05
2023-05-21T11:47:15.177Z,97799.70
2023-05-21T11:50:18.900Z,97797.70
2023-05-21T11:53:22.224Z,97802.11
2023-05-21T11:56:25.950Z,97805.08
2023-05-21T11:59:29.001Z,97807.13
2023-05-21T12:02:33.081Z,97805.05
2023-05-21T12:05:48.847Z,97801.23
2023-05-21T12:08:52.797Z,97802.29
2023-05-21T12:11:55.825Z,97801.56
2023-05-21T12:14:59.391Z,97801.90
2023-05-21T12:18:03.118Z,97805.63
2023-05-21T12:21:07.059Z,97804.33
2023-05-21T12:24:09.971Z,97800.80
2023-05-21T12:27:13.925Z,97806.88
2023-05-21T12:30:17.035Z,97804.37
2023-05-21T12:33:20.125Z,97803.31
2023-05-21T12:36:27.136Z,97803.09
2023-05-21T12:39:31.520Z,97801.64
2023-05-21T12:42:37.543Z,97790.55
2023-05-21T12:45:40.966Z,97788.66
2023-05-21T12:48:51.647Z,97777.97
2023-05-21T12:51:57.140Z,97775.92
2023-05-21T12:55:00.259Z,97770.77
2023-05-21T12:58:08.790Z,97762.71
2023-05-21T13:01:12.580Z,97758.76
2023-05-21T13:04:15.644Z,97760.51
2023-05-21T13:07:18.777Z,97759.68
2023-05-21T13:10:21.846Z,97750.75
2023-05-21T13:13:24.754Z,97740.16
2023-05-21T13:16:27.758Z,97747.41
2023-05-21T13:19:30.912Z,97739.17
2023-05-21T13:22:34.300Z,97731.94
2023-05-21T13:25:37.293Z,97731.02
2023-05-21T13:28:42.399Z,97736.52
2023-05-21T13:31:45.891Z,97737.13
2023-05-21T13:34:48.820Z,97736.44
2023-05-21T13:37:51.771Z,97734.28
2023-05-21T13:40:54.757Z,97729.28
2023-05-21T13:43:58.133Z,97726.80
2023-05-21T13:47:01.170Z,97728.44
2023-05-21T13:50:04.499Z,97732.20
2023-05-21T13:53:07.445Z,97733.23
2023-05-21T13:56:10.525Z,97734.11
2023-05-21T13:59:13.474Z,97734.20
2023-05-21T14:02:16.658Z,97745.16
2023-05-21T14:05:19.730Z,97748.30
2023-05-21T14:08:23.830Z,97740.42
2023-05-21T14:11:28.184Z,97741.78
2023-05-21T14:14:31.599Z,97743.89
2023-05-21T14:17:34.586Z,97751.28
2023-05-21T14:20:39.955Z,97745.52
2023-05-21T14:23:42.953Z,97739.10
2023-05-21T14:26:46.270Z,97740.21
2023-05-21T14:29:49.345Z,97735.85
2023-05-21T14:32:52.302Z,97740.29
2023-05-21T14:35:55.419Z,97734.67
2023-05-21T14:38:58.381Z,97732.14
2023-05-21T14:42:04.794Z,97725.67
2023-05-21T14:45:20.471Z,97729.38
2023-05-21T14:48:24.168Z,97737.71
2023-05-21T14:51:27.448Z,97731.77
2023-05-21T14:54:30.531Z,97736.80
2023-05-21T14:57:33.488Z,97739.94
2023-05-21T15:00:37.002Z,97739.05
2023-05-21T15:03:40.130Z,97738.52
2023-05-21T15:06:43.182Z,97733.77
2023-05-21T15:09:47.546Z,97741.94
2023-05-21T15:12:51.422Z,97740.45
2023-05-21T15:15:54.520Z,97740.30
2023-05-21T15:18:57.640Z,97737.30
2023-05-21T15:22:00.649Z,97737.14
2023-05-21T15:25:04.264Z,97735.10
2023-05-21T15:28:07.253Z,97735.19
2023-05-21T15:31:10.416Z,97732.44
2023-05-21T15:34:13.854Z,97736.81
2023-05-21T15:37:17.231Z,97739.05
2023-05-21T15:40:20.303Z,97744.23
2023-05-21T15:43:23.261Z,97744.58
2023-05-21T15:46:28.575Z,97734.27
2023-05-21T15:49:31.611Z,97745.70
2023-05-21T15:52:34.653Z,97741.28
2023-05-21T15:55:37.992Z,97742.02
2023-05-21T15:58:41.167Z,97742.65
2023-05-21T16:01:44.570Z,97746.02
2023-05-21T16:04:51.510Z,97742.64
2023-05-21T16:07:54.769Z,97747.33
2023-05-21T16:10:57.762Z,97746.21
2023-05-21T16:14:00.867Z,97746.52
2023-05-21T16:17:03.987Z,97747.11
2023-05-21T16:20:07.770Z,97749.64
2023-05-21T16:23:14.314Z,97745.30
2023-05-21T16:26:17.474Z,97751.56
2023-05-21T16:29:22.159Z,97755.39
2023-05-21T16:32:25.617Z,97766.32
2023-05-21T16:35:28.938Z,97755.80
2023-05-21T16:38:32.290Z,97755.40
2023-05-21T16:41:39.508Z,97758.23
2023-05-21T16:45:43.379Z,97759.67
2023-05-21T16:49:46.789Z,97761.47
2023-05-21T16:57:20.894Z,97767.70
2023-05-21T17:00:29.613Z,97773.64
2023-05-21T17:03:33.736Z,97782.81
2023-05-21T17:06:42.544Z,97785.02
2023-05-21T17:10:02.121Z,97790.70
2023-05-21T17:13:21.325Z,97782.27
2023-05-21T17:16:29.711Z,97789.71
2023-05-21T17:19:35.677Z,97785.59
2023-05-21T17:22:39.576Z,97785.63
2023-05-21T17:26:04.643Z,97786.55
2023-05-21T17:29:07.345Z,97785.47
2023-05-21T17:32:12.791Z,97792.55
2023-05-21T17:35:19.366Z,97792.66
2023-05-21T17:38:23.090Z,97793.20
2023-05-21T17:41:28.538Z,97789.98
2023-05-21T17:44:31.738Z,97791.65
2023-05-21T17:47:35.605Z,97792.41
2023-05-21T17:50:38.938Z,97791.79
2023-05-21T17:53:41.978Z,97796.83
2023-05-21T17:56:46.565Z,97792.61
2023-05-21T17:59:50.124Z,97795.29
2023-05-21T18:02:53.018Z,97798.77
2023-05-21T18:05:56.801Z,97798.29
2023-05-21T18:08:59.722Z,97798.80
2023-05-21T18:12:04.500Z,97798.77
2023-05-21T18:15:11.337Z,97793.58
2023-05-21T18:18:19.755Z,97796.34
2023-05-21T18:21:28.368Z,97794.40
2023-05-21T18:24:31.408Z,97796.73
2023-05-21T18:28:00.241Z,97798.75
2023-05-21T18:31:27.198Z,97796.33
2023-05-21T18:34:56.526Z,97796.25
2023-05-21T18:38:00.159Z,97797.82
2023-05-21T18:41:29.254Z,97795.61
2023-05-21T18:44:41.388Z,97795.79
2023-05-21T18:48:08.078Z,97793.81
2023-05-21T18:51:36.674Z,97787.80
2023-05-21T18:55:08.543Z,97792.01
2023-05-21T18:58:23.963Z,97788.63
2023-05-21T19:01:34.217Z,97793.30
2023-05-21T19:04:52.847Z,97796.01
2023-05-21T19:08:25.267Z,97801.05
2023-05-21T19:11:45.239Z,97803.55
2023-05-21T19:14:50.611Z,97806.84
2023-05-21T19:18:15.219Z,97805.95
2023-05-21T19:21:33.506Z,97803.95
2023-05-21T19:25:01.006Z,97804.53
2023-05-21T19:28:45.823Z,97802.96
2023-05-21T19:32:04.116Z,97801.09
2023-05-21T19:35:11.917Z,97795.69
2023-05-21T19:38:50.095Z,97797.18
2023-05-21T19:42:26.047Z,97795.34
2023-05-21T19:45:34.103Z,97791.95
2023-05-21T19:48:42.472Z,97786.48
2023-05-21T19:52:10.666Z,97783.48
2023-05-21T19:55:21.624Z,97787.25
2023-05-21T19:58:30.497Z,97781.70
2023-05-21T20:01:40.074Z,97781.52
2023-05-21T20:04:43.999Z,97782.67
2023-05-21T20:07:56.094Z,97778.67
2023-05-21T20:11:10.360Z,97776.06
2023-05-21T20:14:16.409Z,97774.71
2023-05-21T20:17:42.217Z,97772.27
2023-05-21T20:20:56.890Z,97777.80
2023-05-21T20:24:22.674Z,97776.79
2023-05-21T20:27:32.252Z,97776.10
2023-05-21T20:31:13.279Z,97777.04
2023-05-21T20:35:02.696Z,97776.77
2023-05-21T20:38:47.381Z,97773.34
2023-05-21T20:43:33.671Z,97772.91
2023-05-21T20:47:23.599Z,97773.13
2023-05-21T20:50:58.059Z,97772.34
2023-05-21T20:54:23.332Z,97766.06
2023-05-21T20:58:07.234Z,97767.66
2023-05-21T21:01:18.769Z,97767.38
2023-05-21T21:04:24.807Z,97760.06
2023-05-21T21:08:15.324Z,97756.78
2023-05-21T21:11:43.781Z,97756.48
2023-05-21T21:15:28.759Z,97760.27
2023-05-21T21:19:12.994Z,97758.20
2023-05-21T21:22:49.614Z,97756.98
2023-05-21T21:26:37.536Z,97756.95
2023-05-21T21:30:09.283Z,97760.75
2023-05-21T21:33:29.217Z,97770.20
2023-05-21T21:36:54.204Z,97773.52
2023-05-21T21:40:14.760Z,97765.94
2023-05-21T21:43:40.250Z,97767.94
2023-05-21T21:47:54.536Z,97768.61
2023-05-21T21:51:16.937Z,97772.40
2023-05-21T21:54:43.036Z,97769.50
2023-05-21T21:58:02.132Z,97773.52
2023-05-21T22:01:27.801Z,97779.39
2023-05-21T22:05:09.410Z,97779.31
2023-05-21T22:08:38.245Z,97778.93
2023-05-21T22:12:39.158Z,97780.84
2023-05-21T22:15:42.130Z,97777.88
2023-05-21T22:19:13.556Z,97776.13
2023-05-21T22:22:39.458Z,97774.34
2023-05-21T22:25:59.423Z,97768.02
2023-05-21T22:29:20.399Z,97772.36
2023-05-21T22:32:46.935Z,97769.19
2023-05-21T22:35:58.616Z,97769.42
2023-05-21T22:39:19.840Z,97765.62
2023-05-21T22:42:45.069Z,97769.52
2023-05-21T22:46:22.460Z,97766.35
2023-05-21T22:50:08.148Z,97768.08
2023-05-21T22:53:49.632Z,97775.17
2023-05-21T22:57:05.221Z,97772.37
2023-05-21T23:00:31.927Z,97770.69
2023-05-21T23:03:52.593Z,97771.06
2023-05-21T23:07:27.157Z,97766.00
2023-05-21T23:10:55.098Z,97767.16
2023-05-21T23:14:16.753Z,97774.01
2023-05-21T23:18:12.138Z,97764.41
2023-05-21T23:21:47.390Z,97766.95
2023-05-21T23:25:43.834Z,97767.11
2023-05-21T23:28:58.762Z,97755.70
2023-05-21T23:32:12.844Z,97751.95
2023-05-21T23:35:59.419Z,97752.69
2023-05-21T23:39:29.487Z,97748.95
2023-05-21T23:42:59.067Z,97747.29
2023-05-21T23:46:20.821Z,97745.90
2023-05-21T23:50:24.343Z,97749.48
2023-05-21T23:54:31.905Z,97749.77
2023-05-21T23:57:51.655Z,97750.21
